createdAt,value
2023-05-04T00:01:41.223Z,15.98
2023-05-04T00:05:43.994Z,17.23
2023-05-04T00:09:46.818Z,15.10
2023-05-04T00:13:49.628Z,14.65
2023-05-04T00:17:54.855Z,18.88
2023-05-04T00:21:57.683Z,13.68
2023-05-04T00:26:00.776Z,14.18
2023-05-04T00:30:03.997Z,15.80
2023-05-04T00:34:20.052Z,12.60
2023-05-04T00:38:22.831Z,13.45
2023-05-04T00:42:25.665Z,15.68
2023-05-04T00:46:30.478Z,13.07
2023-05-04T00:50:35.908Z,16.45
2023-05-04T00:54:39.148Z,11.88
2023-05-04T00:58:42.058Z,15.55
2023-05-04T01:02:44.978Z,12.23
2023-05-04T01:06:58.271Z,13.52
2023-05-04T01:11:08.487Z,10.73
2023-05-04T01:15:13.145Z,11.40
2023-05-04T01:19:16.479Z,11.25
2023-05-04T01:23:20.861Z,13.05
2023-05-04T01:27:27.390Z,11.70
2023-05-04T01:31:31.294Z,10.40
2023-05-04T01:35:34.559Z,11.90
2023-05-04T01:39:38.752Z,10.10
2023-05-04T01:43:41.680Z,10.35
2023-05-04T01:47:44.782Z,14.82
2023-05-04T01:51:49.436Z,11.57
2023-05-04T01:55:53.695Z,11.98
2023-05-04T01:59:56.516Z,11.43
2023-05-04T02:04:00.918Z,13.05
2023-05-04T02:08:04.105Z,12.13
2023-05-04T02:12:10.661Z,13.98
2023-05-04T02:16:13.584Z,11.73
2023-05-04T02:20:16.484Z,10.63
2023-05-04T02:24:21.903Z,10.17
2023-05-04T02:28:26.121Z,9.75
2023-05-04T02:32:31.230Z,13.85
2023-05-04T02:36:34.063Z,12.70
2023-05-04T02:40:36.838Z,11.30
2023-05-04T02:44:41.874Z,10.95
2023-05-04T02:48:45.045Z,9.80
2023-05-04T02:52:48.054Z,14.13
2023-05-04T02:56:50.870Z,14.88
2023-05-04T03:00:57.391Z,13.48
2023-05-04T03:05:00.205Z,12.68
2023-05-04T03:09:03.131Z,13.93
2023-05-04T03:13:06.229Z,18.63
2023-05-04T03:17:10.584Z,17.02
2023-05-04T03:21:13.476Z,14.90
2023-05-04T03:25:16.804Z,16.77
2023-05-04T03:29:19.696Z,15.43
2023-05-04T03:33:25.795Z,13.02
2023-05-04T03:37:31.206Z,17.73
2023-05-04T03:41:34.056Z,19.20
2023-05-04T03:45:37.075Z,16.10
2023-05-04T03:49:41.323Z,11.70
2023-05-04T03:53:45.006Z,13.05
2023-05-04T03:57:55.131Z,17.17
2023-05-04T04:01:59.932Z,16.98
2023-05-04T04:06:04.574Z,17.42
2023-05-04T04:10:08.777Z,18.02
2023-05-04T04:14:12.696Z,14.95
2023-05-04T04:18:15.478Z,16.98
2023-05-04T04:22:19.590Z,15.40
2023-05-04T04:26:22.561Z,18.15
2023-05-04T04:30:26.430Z,21.85
2023-05-04T04:34:29.189Z,22.17
2023-05-04T04:38:33.309Z,25.63
2023-05-04T04:42:36.109Z,21.10
2023-05-04T04:46:38.983Z,22.17
2023-05-04T04:50:41.816Z,29.27
2023-05-04T04:54:46.582Z,26.75
2023-05-04T04:58:49.321Z,23.35
2023-05-04T05:02:52.035Z,20.50
2023-05-04T05:06:55.066Z,22.92
2023-05-04T05:10:59.193Z,23.40
2023-05-04T05:15:04.237Z,24.25
2023-05-04T05:19:06.946Z,22.00
2023-05-04T05:23:09.675Z,25.98
2023-05-04T05:27:13.793Z,30.77
2023-05-04T05:31:16.597Z,24.42
2023-05-04T05:35:19.452Z,24.92
2023-05-04T05:39:22.256Z,24.02
2023-05-04T05:43:26.959Z,22.88
2023-05-04T05:47:29.700Z,18.75
2023-05-04T05:51:32.492Z,16.00
2023-05-04T05:55:35.356Z,17.50
2023-05-04T05:59:40.571Z,11.43
2023-05-04T06:03:43.511Z,11.23
2023-05-04T06:07:46.323Z,10.25
2023-05-04T06:11:49.093Z,8.73
2023-05-04T06:15:53.803Z,13.68
2023-05-04T06:19:56.760Z,8.37
2023-05-04T06:23:59.576Z,9.88
2023-05-04T06:28:02.404Z,9.43
2023-05-04T06:32:07.135Z,7.07
2023-05-04T06:36:10.396Z,9.80
2023-05-04T06:40:14.088Z,6.47
2023-05-04T06:44:17.683Z,8.80
2023-05-04T06:48:22.818Z,11.43
2023-05-04T06:52:25.600Z,9.02
2023-05-04T06:56:28.361Z,6.10
2023-05-04T07:00:31.522Z,8.93
2023-05-04T07:04:35.746Z,6.03
2023-05-04T07:08:38.582Z,7.35
2023-05-04T07:12:41.391Z,4.93
2023-05-04T07:16:44.270Z,8.32
2023-05-04T07:20:48.441Z,7.13
2023-05-04T07:24:51.365Z,6.10
2023-05-04T07:28:54.188Z,9.98
2023-05-04T07:32:56.971Z,11.93
2023-05-04T07:37:01.115Z,7.38
2023-05-04T07:41:03.939Z,6.47
2023-05-04T07:45:08.421Z,6.93
2023-05-04T07:49:11.174Z,8.33
2023-05-04T07:53:15.291Z,9.30
2023-05-04T07:57:18.061Z,5.93
2023-05-04T08:01:20.844Z,10.35
2023-05-04T08:05:23.615Z,8.80
2023-05-04T08:09:27.853Z,7.72
2023-05-04T08:13:30.636Z,6.70
2023-05-04T08:17:34.860Z,8.65
2023-05-04T08:21:37.786Z,7.65
2023-05-04T08:25:42.002Z,8.65
2023-05-04T08:29:44.847Z,8.50
2023-05-04T08:33:47.671Z,6.00
2023-05-04T08:37:50.516Z,7.40
2023-05-04T08:41:54.773Z,6.22
2023-05-04T08:45:58.066Z,7.57
2023-05-04T08:50:01.103Z,6.03
2023-05-04T08:54:07.162Z,5.97
2023-05-04T08:58:13.748Z,5.10
2023-05-04T09:02:20.737Z,5.38
2023-05-04T09:06:23.903Z,6.53
2023-05-04T09:10:29.392Z,5.25
2023-05-04T09:14:37.390Z,8.40
2023-05-04T09:18:41.143Z,4.95
2023-05-04T09:22:43.972Z,9.40
2023-05-04T09:26:47.119Z,5.38
2023-05-04T09:30:51.631Z,8.25
2023-05-04T09:34:55.225Z,4.75
2023-05-04T09:38:58.019Z,8.65
2023-05-04T09:43:01.147Z,4.38
2023-05-04T09:47:05.805Z,5.40
2023-05-04T09:51:08.764Z,5.40
2023-05-04T09:55:13.668Z,6.38
2023-05-04T09:59:17.272Z,4.60
2023-05-04T10:03:22.162Z,6.47
2023-05-04T10:07:26.040Z,4.40
2023-05-04T10:11:30.444Z,4.47
2023-05-04T10:15:34.045Z,4.93
2023-05-04T10:19:50.957Z,4.63
2023-05-04T10:24:15.717Z,6.53
2023-05-04T10:28:28.992Z,4.63
2023-05-04T10:32:38.564Z,7.93
2023-05-04T10:36:42.778Z,6.20
2023-05-04T10:40:48.926Z,5.28
2023-05-04T10:48:55.526Z,5.72
2023-05-04T10:53:00.133Z,10.18
2023-05-04T10:57:07.752Z,5.93
2023-05-04T11:01:13.021Z,9.02
2023-05-04T11:05:20.322Z,5.18
2023-05-04T11:09:25.551Z,6.45
2023-05-04T11:13:30.166Z,4.85
2023-05-04T11:17:33.168Z,5.35
2023-05-04T11:21:36.014Z,3.88
2023-05-04T11:25:40.297Z,4.95
2023-05-04T11:29:54.368Z,2.80
2023-05-04T11:33:57.228Z,4.10
2023-05-04T11:38:00.112Z,6.53
2023-05-04T11:42:09.055Z,5.32
2023-05-04T11:46:12.704Z,5.60
2023-05-04T11:50:17.230Z,4.07
2023-05-04T11:54:23.268Z,5.07
2023-05-04T11:58:28.072Z,3.42
2023-05-04T12:02:30.982Z,4.13
2023-05-04T12:06:34.581Z,4.20
2023-05-04T12:10:37.430Z,2.85
2023-05-04T12:14:50.371Z,3.00
2023-05-04T12:19:03.198Z,4.88
2023-05-04T12:23:08.472Z,7.28
2023-05-04T12:27:14.612Z,4.68
2023-05-04T12:31:19.153Z,6.72
2023-05-04T12:35:22.129Z,3.83
2023-05-04T12:39:25.192Z,3.35
2023-05-04T12:43:28.029Z,4.65
2023-05-04T12:47:32.224Z,5.43
2023-05-04T12:51:35.121Z,4.60
2023-05-04T12:55:39.456Z,5.25
2023-05-04T12:59:42.302Z,6.35
2023-05-04T13:03:46.659Z,8.02
2023-05-04T13:07:49.525Z,7.88
2023-05-04T13:11:52.339Z,4.43
2023-05-04T13:15:55.542Z,4.18
2023-05-04T13:19:59.723Z,4.43
2023-05-04T13:24:02.526Z,6.78
2023-05-04T13:28:05.385Z,5.68
2023-05-04T13:32:08.317Z,2.50
2023-05-04T13:36:12.526Z,6.82
2023-05-04T13:40:15.513Z,7.17
2023-05-04T13:44:18.413Z,7.30
2023-05-04T13:48:21.306Z,4.05
2023-05-04T13:52:25.593Z,8.85
2023-05-04T13:56:28.433Z,5.00
2023-05-04T14:00:31.288Z,2.85
2023-05-04T14:04:34.460Z,10.32
2023-05-04T14:08:39.517Z,14.48
2023-05-04T14:12:42.414Z,11.27
2023-05-04T14:16:45.300Z,6.85
2023-05-04T14:20:49.684Z,15.10
2023-05-04T14:24:53.884Z,7.75
2023-05-04T14:28:56.768Z,12.95
2023-05-04T14:32:59.605Z,9.35
2023-05-04T14:37:02.507Z,8.95
2023-05-04T14:41:07.689Z,8.13
2023-05-04T14:45:11.777Z,10.87
2023-05-04T14:49:24.592Z,6.72
2023-05-04T14:53:39.253Z,7.20
2023-05-04T14:57:43.984Z,15.45
2023-05-04T15:01:47.018Z,19.98
2023-05-04T15:05:49.951Z,10.50
2023-05-04T15:09:52.756Z,9.68
2023-05-04T15:13:58.818Z,8.30
2023-05-04T15:22:05.031Z,16.85
2023-05-04T15:26:07.847Z,6.25
2023-05-04T15:30:12.932Z,8.90
2023-05-04T15:34:18.348Z,6.03
2023-05-04T15:38:22.051Z,10.88
2023-05-04T15:42:24.869Z,10.75
2023-05-04T15:46:29.464Z,6.28
2023-05-04T15:50:33.176Z,10.93
2023-05-04T15:54:36.249Z,7.38
2023-05-04T15:58:39.077Z,7.28
2023-05-04T16:02:43.319Z,7.88
2023-05-04T16:06:46.293Z,10.90
2023-05-04T16:10:49.137Z,8.65
2023-05-04T16:14:52.060Z,11.20
2023-05-04T16:18:56.240Z,9.80
2023-05-04T16:22:59.166Z,5.47
2023-05-04T16:27:01.950Z,8.82
2023-05-04T16:31:05.954Z,9.57
2023-05-04T16:35:10.754Z,7.88
2023-05-04T16:39:13.671Z,13.93
2023-05-04T16:43:16.533Z,9.30
2023-05-04T16:47:20.323Z,8.48
2023-05-04T16:51:24.503Z,8.43
2023-05-04T16:55:27.560Z,8.95
2023-05-04T16:59:30.427Z,8.52
2023-05-04T17:03:33.341Z,9.55
2023-05-04T17:07:38.011Z,12.00
2023-05-04T17:11:40.897Z,10.82
2023-05-04T17:15:43.794Z,13.27
2023-05-04T17:19:46.723Z,6.88
2023-05-04T17:23:50.879Z,8.88
2023-05-04T17:27:53.787Z,7.00
2023-05-04T17:31:56.713Z,10.95
2023-05-04T17:35:59.508Z,6.70
2023-05-04T17:40:04.021Z,6.60
2023-05-04T17:44:06.843Z,10.45
2023-05-04T17:48:09.765Z,9.27
2023-05-04T17:52:13.665Z,7.18
2023-05-04T17:56:19.582Z,6.75
2023-05-04T18:00:22.728Z,7.25
2023-05-04T18:04:25.585Z,9.13
2023-05-04T18:08:28.393Z,10.68
2023-05-04T18:12:33.299Z,9.77
2023-05-04T18:16:39.176Z,7.67
2023-05-04T18:20:42.018Z,9.00
2023-05-04T18:24:47.699Z,12.00
2023-05-04T18:28:51.828Z,7.70
2023-05-04T18:32:54.641Z,10.38
2023-05-04T18:36:57.444Z,9.10
2023-05-04T18:41:00.318Z,6.20
2023-05-04T18:45:04.876Z,7.78
2023-05-04T18:49:07.688Z,6.10
2023-05-04T18:53:10.840Z,13.48
2023-05-04T18:57:14.252Z,8.05
2023-05-04T19:01:18.532Z,11.18
2023-05-04T19:05:21.338Z,6.63
2023-05-04T19:09:24.215Z,11.77
2023-05-04T19:13:27.286Z,8.93
2023-05-04T19:17:31.676Z,7.15
2023-05-04T19:21:34.578Z,6.65
2023-05-04T19:25:37.410Z,8.25
2023-05-04T19:29:40.269Z,8.07
2023-05-04T19:33:48.699Z,8.57
2023-05-04T19:37:51.768Z,6.53
2023-05-04T19:41:54.523Z,8.65
2023-05-04T19:45:57.445Z,11.98
2023-05-04T19:50:01.806Z,9.23
2023-05-04T19:54:04.611Z,7.90
2023-05-04T19:58:07.476Z,8.10
2023-05-04T20:02:10.329Z,8.20
2023-05-04T20:06:14.748Z,9.50
2023-05-04T20:10:17.595Z,9.05
2023-05-04T20:14:20.400Z,9.80
2023-05-04T20:18:23.348Z,11.13
2023-05-04T20:22:27.619Z,12.77
2023-05-04T20:26:30.759Z,12.57
2023-05-04T20:30:33.579Z,11.15
2023-05-04T20:34:38.594Z,9.15
2023-05-04T20:38:42.830Z,8.73
2023-05-04T20:42:45.655Z,7.07
2023-05-04T20:46:48.435Z,9.70
2023-05-04T20:50:53.168Z,8.77
2023-05-04T20:55:01.381Z,11.90
2023-05-04T20:59:04.302Z,8.02
2023-05-04T21:03:07.168Z,8.10
2023-05-04T21:07:10.135Z,10.43
2023-05-04T21:11:14.469Z,9.77
2023-05-04T21:15:17.484Z,16.90
2023-05-04T21:19:20.597Z,10.05
2023-05-04T21:23:24.916Z,6.72
2023-05-04T21:27:29.112Z,6.68
2023-05-04T21:31:33.177Z,11.07
2023-05-04T21:35:36.031Z,8.68
2023-05-04T21:39:38.852Z,11.77
2023-05-04T21:43:43.711Z,6.10
2023-05-04T21:47:46.726Z,14.05
2023-05-04T21:51:49.531Z,7.97
2023-05-04T21:55:52.414Z,7.32
2023-05-04T21:59:56.531Z,9.68
2023-05-04T22:03:59.354Z,6.88
2023-05-04T22:08:02.140Z,8.82
2023-05-04T22:12:05.546Z,10.52
2023-05-04T22:16:10.463Z,9.48
2023-05-04T22:20:14.213Z,10.38
2023-05-04T22:24:17.422Z,8.55
2023-05-04T22:28:20.804Z,9.15
2023-05-04T22:32:25.012Z,12.98
2023-05-04T22:36:27.839Z,18.38
2023-05-04T22:40:30.737Z,21.33
2023-05-04T22:44:34.753Z,16.60
2023-05-04T22:48:38.939Z,13.55
2023-05-04T22:52:41.936Z,11.95
2023-05-04T22:56:44.753Z,9.90
2023-05-04T23:00:47.912Z,9.68
2023-05-04T23:04:53.081Z,8.25
2023-05-04T23:08:56.095Z,11.95
2023-05-04T23:12:58.896Z,10.30
2023-05-04T23:17:01.743Z,6.15
2023-05-04T23:21:06.359Z,15.40
2023-05-04T23:25:09.841Z,7.72
2023-05-04T23:29:12.632Z,10.73
2023-05-04T23:33:15.424Z,7.22
2023-05-04T23:37:19.626Z,8.07
2023-05-04T23:41:22.441Z,8.32
2023-05-04T23:45:25.311Z,7.88
2023-05-04T23:49:28.131Z,9.80
2023-05-04T23:53:33.606Z,9.23
2023-05-04T23:57:36.418Z,6.75
